createdAt,value
2022-09-25T00:00:56.493Z,100675.84
2022-09-25T00:03:26.330Z,100674.41
2022-09-25T00:05:53.538Z,100672.00
2022-09-25T00:08:20.431Z,100677.25
2022-09-25T00:10:50.604Z,100675.59
2022-09-25T00:13:19.346Z,100675.09
2022-09-25T00:15:51.545Z,100670.19
2022-09-25T00:18:38.881Z,100671.38
2022-09-25T00:21:06.763Z,100673.16
2022-09-25T00:23:34.443Z,100668.03
2022-09-25T00:26:08.184Z,100662.19
2022-09-25T00:28:39.057Z,100664.81
2022-09-25T00:31:07.663Z,100667.44
2022-09-25T00:33:35.162Z,100664.59
2022-09-25T00:36:07.208Z,100663.03
2022-09-25T00:38:35.805Z,100667.53
2022-09-25T00:41:04.184Z,100659.81
2022-09-25T00:43:41.852Z,100667.03
2022-09-25T00:46:44.363Z,100672.59
2022-09-25T00:49:19.947Z,100671.88
2022-09-25T00:51:59.501Z,100680.06
2022-09-25T00:54:31.519Z,100675.78
2022-09-25T00:57:01.529Z,100670.66
2022-09-25T00:59:33.034Z,100673.91
2022-09-25T01:02:00.107Z,100674.63
2022-09-25T01:04:30.807Z,100671.38
2022-09-25T01:06:58.263Z,100672.00
2022-09-25T01:09:24.930Z,100675.88
2022-09-25T01:11:51.497Z,100684.88
2022-09-25T01:14:18.138Z,100676.94
2022-09-25T01:17:13.803Z,100678.63
2022-09-25T01:20:06.619Z,100682.91
2022-09-25T01:22:55.245Z,100680.28
2022-09-25T01:25:43.392Z,100683.72
2022-09-25T01:28:15.958Z,100680.38
2022-09-25T01:30:46.552Z,100675.50
2022-09-25T01:33:34.104Z,100674.91
2022-09-25T01:36:11.067Z,100679.41
2022-09-25T01:38:45.195Z,100684.50
2022-09-25T01:41:22.790Z,100684.50
2022-09-25T01:44:14.034Z,100686.28
2022-09-25T01:46:46.619Z,100683.91
2022-09-25T01:49:29.293Z,100679.63
2022-09-25T01:51:57.581Z,100678.97
2022-09-25T01:54:30.845Z,100668.75
2022-09-25T01:57:05.273Z,100678.25
2022-09-25T01:59:44.265Z,100671.47
2022-09-25T02:02:14.316Z,100674.31
2022-09-25T02:04:52.058Z,100669.91
2022-09-25T02:07:23.582Z,100674.81
2022-09-25T02:09:54.097Z,100673.66
2022-09-25T02:12:34.259Z,100672.72
2022-09-25T02:15:11.612Z,100676.16
2022-09-25T02:18:14.129Z,100669.47
2022-09-25T02:20:42.788Z,100670.31
2022-09-25T02:23:23.609Z,100666.25
2022-09-25T02:26:05.579Z,100664.66
2022-09-25T02:28:32.395Z,100662.31
2022-09-25T02:31:03.727Z,100662.31
2022-09-25T02:33:30.630Z,100657.28
2022-09-25T02:36:01.172Z,100657.59
2022-09-25T02:38:29.375Z,100654.59
2022-09-25T02:41:15.421Z,100654.00
2022-09-25T02:43:41.972Z,100653.66
2022-09-25T02:46:21.824Z,100650.84
2022-09-25T02:48:56.775Z,100657.59
2022-09-25T02:51:31.262Z,100653.09
2022-09-25T02:55:02.713Z,100652.38
2022-09-25T02:57:53.503Z,100646.56
2022-09-25T03:00:23.439Z,100640.47
2022-09-25T03:02:56.310Z,100656.28
2022-09-25T03:05:25.187Z,100646.75
2022-09-25T03:08:13.549Z,100649.38
2022-09-25T03:10:41.290Z,100652.81
2022-09-25T03:13:23.354Z,100655.13
2022-09-25T03:15:58.871Z,100652.59
2022-09-25T03:18:26.395Z,100653.53
2022-09-25T03:20:53.391Z,100646.56
2022-09-25T03:23:20.386Z,100648.31
2022-09-25T03:25:50.248Z,100644.66
2022-09-25T03:28:17.926Z,100637.88
2022-09-25T03:30:45.741Z,100635.38
2022-09-25T03:33:13.551Z,100636.19
2022-09-25T03:35:43.335Z,100638.81
2022-09-25T03:38:10.519Z,100633.69
2022-09-25T03:40:37.204Z,100634.66
2022-09-25T03:45:29.686Z,100630.47
2022-09-25T03:47:56.293Z,100627.94
2022-09-25T03:50:22.895Z,100634.94
2022-09-25T03:52:49.431Z,100625.44
2022-09-25T03:55:15.986Z,100623.66
2022-09-25T03:57:42.955Z,100617.91
2022-09-25T04:00:09.981Z,100627.53
2022-09-25T04:02:39.645Z,100618.03
2022-09-25T04:05:09.880Z,100624.28
2022-09-25T04:07:36.535Z,100625.03
2022-09-25T04:10:03.709Z,100630.47
2022-09-25T04:12:30.335Z,100632.13
2022-09-25T04:14:56.934Z,100627.75
2022-09-25T04:17:23.544Z,100624.28
2022-09-25T04:19:50.368Z,100621.81
2022-09-25T04:22:16.910Z,100622.63
2022-09-25T04:24:49.305Z,100620.88
2022-09-25T04:27:21.634Z,100622.84
2022-09-25T04:29:49.026Z,100614.19
2022-09-25T04:32:37.494Z,100620.22
2022-09-25T04:35:04.529Z,100621.28
2022-09-25T04:37:31.111Z,100614.06
2022-09-25T04:39:58.457Z,100616.91
2022-09-25T04:42:25.629Z,100607.50
2022-09-25T04:44:54.257Z,100607.63
2022-09-25T04:47:22.497Z,100609.59
2022-09-25T04:49:49.729Z,100613.28
2022-09-25T04:52:17.741Z,100607.31
2022-09-25T04:54:44.379Z,100618.38
2022-09-25T04:57:27.344Z,100622.66
2022-09-25T05:00:02.254Z,100616.91
2022-09-25T05:02:29.018Z,100629.97
2022-09-25T05:04:55.690Z,100631.56
2022-09-25T05:07:22.411Z,100622.88
2022-09-25T05:09:48.957Z,100623.50
2022-09-25T05:12:15.811Z,100619.94
2022-09-25T05:14:42.946Z,100613.66
2022-09-25T05:17:11.328Z,100624.84
2022-09-25T05:19:41.053Z,100613.47
2022-09-25T05:22:07.598Z,100623.81
2022-09-25T05:24:35.377Z,100624.75
2022-09-25T05:27:02.526Z,100626.63
2022-09-25T05:29:29.237Z,100629.25
2022-09-25T05:31:56.345Z,100631.13
2022-09-25T05:34:22.898Z,100630.19
2022-09-25T05:36:49.522Z,100620.13
2022-09-25T05:39:16.078Z,100625.88
2022-09-25T05:41:42.829Z,100618.84
2022-09-25T05:44:09.955Z,100617.91
2022-09-25T05:46:37.251Z,100618.97
2022-09-25T05:49:04.718Z,100617.19
2022-09-25T05:51:32.341Z,100621.25
2022-09-25T05:54:00.270Z,100615.09
2022-09-25T05:56:27.181Z,100607.97
2022-09-25T05:58:54.126Z,100612.25
2022-09-25T06:01:22.890Z,100608.66
2022-09-25T06:03:51.638Z,100607.56
2022-09-25T06:06:18.275Z,100613.75
2022-09-25T06:08:45.394Z,100606.41
2022-09-25T06:11:12.015Z,100598.16
2022-09-25T06:13:38.758Z,100602.81
2022-09-25T06:16:13.192Z,100595.78
2022-09-25T06:18:39.819Z,100603.41
2022-09-25T06:21:06.430Z,100598.59
2022-09-25T06:23:35.870Z,100604.53
2022-09-25T06:26:04.341Z,100614.78
2022-09-25T06:28:31.388Z,100611.09
2022-09-25T06:31:04.717Z,100608.03
2022-09-25T06:33:31.611Z,100609.84
2022-09-25T06:35:58.462Z,100607.00
2022-09-25T06:38:25.862Z,100603.44
2022-09-25T06:40:52.774Z,100607.38
2022-09-25T06:43:19.405Z,100610.41
2022-09-25T06:45:47.895Z,100608.97
2022-09-25T06:48:18.349Z,100605.81
2022-09-25T06:50:52.391Z,100611.38
2022-09-25T06:53:20.720Z,100605.47
2022-09-25T06:55:47.872Z,100597.97
2022-09-25T06:58:16.914Z,100602.84
2022-09-25T07:00:55.120Z,100602.28
2022-09-25T07:03:43.407Z,100602.91
2022-09-25T07:06:17.530Z,100602.56
2022-09-25T07:08:45.204Z,100596.84
2022-09-25T07:11:14.753Z,100609.69
2022-09-25T07:13:41.976Z,100607.31
2022-09-25T07:16:14.081Z,100604.81
2022-09-25T07:18:41.667Z,100600.03
2022-09-25T07:21:18.731Z,100598.84
2022-09-25T07:23:48.730Z,100597.28
2022-09-25T07:26:23.296Z,100603.84
2022-09-25T07:28:58.765Z,100600.84
2022-09-25T07:31:28.443Z,100604.75
2022-09-25T07:33:57.322Z,100602.25
2022-09-25T07:36:24.500Z,100605.47
2022-09-25T07:38:52.206Z,100607.44
2022-09-25T07:41:22.213Z,100613.41
2022-09-25T07:44:06.301Z,100619.47
2022-09-25T07:46:44.186Z,100613.91
2022-09-25T07:49:10.953Z,100619.31
2022-09-25T07:51:37.553Z,100612.41
2022-09-25T07:54:04.302Z,100614.97
2022-09-25T07:56:31.115Z,100612.56
2022-09-25T07:58:57.909Z,100613.59
2022-09-25T08:01:24.760Z,100613.22
2022-09-25T08:03:54.428Z,100610.34
2022-09-25T08:06:21.027Z,100618.53
2022-09-25T08:08:47.571Z,100622.31
2022-09-25T08:11:16.924Z,100618.34
2022-09-25T08:13:43.959Z,100612.59
2022-09-25T08:16:18.172Z,100613.34
2022-09-25T08:18:47.078Z,100607.53
2022-09-25T08:21:19.576Z,100606.59
2022-09-25T08:23:52.615Z,100603.56
2022-09-25T08:26:21.317Z,100609.28
2022-09-25T08:28:48.190Z,100600.88
2022-09-25T08:31:15.034Z,100598.44
2022-09-25T08:33:49.693Z,100598.91
2022-09-25T08:36:17.140Z,100599.22
2022-09-25T08:38:45.319Z,100601.25
2022-09-25T08:41:18.226Z,100589.75
2022-09-25T08:44:06.719Z,100596.91
2022-09-25T08:47:00.490Z,100592.75
2022-09-25T08:49:33.745Z,100591.13
2022-09-25T08:52:05.945Z,100587.91
2022-09-25T08:54:35.065Z,100586.59
2022-09-25T08:57:30.212Z,100589.53
2022-09-25T09:00:04.782Z,100584.81
2022-09-25T09:02:42.576Z,100588.81
2022-09-25T09:05:32.235Z,100587.63
2022-09-25T09:08:12.420Z,100583.91
2022-09-25T09:10:51.806Z,100582.00
2022-09-25T09:13:46.201Z,100586.47
2022-09-25T09:16:55.377Z,100585.00
2022-09-25T09:19:21.935Z,100585.16
2022-09-25T09:22:09.483Z,100588.50
2022-09-25T09:24:48.018Z,100585.72
2022-09-25T09:27:26.510Z,100578.44
2022-09-25T09:30:11.045Z,100588.19
2022-09-25T09:33:14.911Z,100574.03
2022-09-25T09:35:46.703Z,100580.47
2022-09-25T09:38:23.114Z,100572.59
2022-09-25T09:41:14.950Z,100569.84
2022-09-25T09:43:48.010Z,100572.28
2022-09-25T09:46:42.093Z,100562.22
2022-09-25T09:49:36.987Z,100558.06
2022-09-25T09:52:17.406Z,100548.63
2022-09-25T09:54:56.150Z,100551.22
2022-09-25T09:57:30.214Z,100546.63
2022-09-25T10:00:05.100Z,100544.31
2022-09-25T10:03:05.187Z,100543.16
2022-09-25T10:05:49.783Z,100542.13
2022-09-25T10:08:17.354Z,100546.28
2022-09-25T10:10:47.392Z,100539.50
2022-09-25T10:13:23.865Z,100531.75
2022-09-25T10:15:55.247Z,100536.03
2022-09-25T10:18:27.949Z,100534.66
2022-09-25T10:21:01.252Z,100530.03
2022-09-25T10:23:33.655Z,100530.91
2022-09-25T10:26:00.857Z,100529.97
2022-09-25T10:28:28.953Z,100524.69
2022-09-25T10:30:58.102Z,100524.00
2022-09-25T10:33:27.416Z,100519.56
2022-09-25T10:35:55.031Z,100517.94
2022-09-25T10:38:56.669Z,100515.97
2022-09-25T10:41:42.789Z,100500.97
2022-09-25T10:44:28.664Z,100514.16
2022-09-25T10:47:14.741Z,100502.88
2022-09-25T10:50:05.885Z,100512.81
2022-09-25T10:53:05.700Z,100498.56
2022-09-25T10:55:35.574Z,100492.03
2022-09-25T10:58:09.341Z,100491.88
2022-09-25T11:00:51.699Z,100482.84
2022-09-25T11:03:34.370Z,100488.22
2022-09-25T11:06:10.742Z,100473.78
2022-09-25T11:08:40.207Z,100477.06
2022-09-25T11:11:14.455Z,100476.56
2022-09-25T11:13:54.661Z,100473.63
2022-09-25T11:16:21.999Z,100475.03
2022-09-25T11:18:50.685Z,100480.31
2022-09-25T11:21:43.094Z,100472.34
2022-09-25T11:24:39.327Z,100475.97
2022-09-25T11:27:19.590Z,100471.84
2022-09-25T11:30:06.539Z,100464.44
2022-09-25T11:32:36.291Z,100470.00
2022-09-25T11:35:33.541Z,100460.69
2022-09-25T11:38:45.394Z,100456.94
2022-09-25T11:41:41.690Z,100466.00
2022-09-25T11:44:23.586Z,100461.78
2022-09-25T11:46:59.857Z,100451.59
2022-09-25T11:49:31.382Z,100452.53
2022-09-25T11:52:02.190Z,100451.50
2022-09-25T11:54:50.704Z,100455.00
2022-09-25T11:57:34.195Z,100456.66
2022-09-25T12:00:21.786Z,100446.84
2022-09-25T12:03:07.379Z,100450.00
2022-09-25T12:05:55.763Z,100448.16
2022-09-25T12:08:51.432Z,100437.22
2022-09-25T12:11:45.521Z,100442.78
2022-09-25T12:14:22.732Z,100432.56
2022-09-25T12:17:17.707Z,100434.31
2022-09-25T12:20:15.265Z,100425.41
2022-09-25T12:23:14.260Z,100427.13
2022-09-25T12:26:18.903Z,100418.44
2022-09-25T12:29:04.121Z,100418.94
2022-09-25T12:32:04.393Z,100419.28
2022-09-25T12:34:50.687Z,100405.88
2022-09-25T12:37:33.359Z,100410.59
2022-09-25T12:40:06.112Z,100407.22
2022-09-25T12:42:46.881Z,100402.50
2022-09-25T12:45:52.030Z,100398.09
2022-09-25T12:48:39.917Z,100404.84
2022-09-25T12:51:21.761Z,100397.19
2022-09-25T12:53:59.016Z,100385.81
2022-09-25T12:56:32.167Z,100387.41
2022-09-25T12:59:26.516Z,100394.84
2022-09-25T13:02:00.843Z,100391.16
2022-09-25T13:04:36.742Z,100399.25
2022-09-25T13:07:13.902Z,100389.00
2022-09-25T13:09:46.239Z,100393.78
2022-09-25T13:12:33.270Z,100385.28
2022-09-25T13:15:08.604Z,100377.03
2022-09-25T13:17:37.235Z,100370.63
2022-09-25T13:20:28.828Z,100375.88
2022-09-25T13:23:03.752Z,100372.66
2022-09-25T13:25:41.457Z,100367.84
2022-09-25T13:28:13.849Z,100365.06
2022-09-25T13:30:56.919Z,100363.41
2022-09-25T13:33:24.543Z,100363.81
2022-09-25T13:36:10.180Z,100370.94
2022-09-25T13:39:00.246Z,100364.97
2022-09-25T13:41:29.787Z,100353.69
2022-09-25T13:44:34.129Z,100348.97
2022-09-25T13:47:25.333Z,100337.03
2022-09-25T13:49:55.553Z,100339.09
2022-09-25T13:53:14.117Z,100337.16
2022-09-25T13:55:42.264Z,100338.69
2022-09-25T13:58:41.479Z,100324.19
2022-09-25T14:01:32.487Z,100321.00
2022-09-25T14:03:59.245Z,100324.44
2022-09-25T14:06:38.214Z,100325.44
2022-09-25T14:09:20.479Z,100317.38
2022-09-25T14:12:33.868Z,100308.25
2022-09-25T14:15:34.181Z,100303.16
2022-09-25T14:18:03.120Z,100296.03
2022-09-25T14:20:40.113Z,100297.91
2022-09-25T14:23:33.090Z,100299.75
2022-09-25T14:26:08.682Z,100303.56
2022-09-25T14:28:47.242Z,100291.81
2022-09-25T14:31:29.278Z,100288.56
2022-09-25T14:34:33.000Z,100290.69
2022-09-25T14:37:08.123Z,100285.31
2022-09-25T14:39:54.105Z,100283.31
2022-09-25T14:42:31.037Z,100288.47
2022-09-25T14:45:08.605Z,100275.75
2022-09-25T14:47:38.855Z,100279.97
2022-09-25T14:50:06.589Z,100276.31
2022-09-25T14:52:36.934Z,100275.97
2022-09-25T14:55:07.409Z,100269.09
2022-09-25T14:57:37.123Z,100279.56
2022-09-25T15:00:07.808Z,100273.56
2022-09-25T15:02:42.488Z,100263.91
2022-09-25T15:05:23.117Z,100264.03
2022-09-25T15:07:50.584Z,100262.19
2022-09-25T15:10:34.442Z,100254.50
2022-09-25T15:13:17.585Z,100260.13
2022-09-25T15:16:23.892Z,100255.28
2022-09-25T15:18:55.083Z,100254.69
2022-09-25T15:21:28.857Z,100255.09
2022-09-25T15:24:01.434Z,100255.00
2022-09-25T15:26:40.656Z,100246.41
2022-09-25T15:29:20.986Z,100247.03
2022-09-25T15:31:52.217Z,100248.25
2022-09-25T15:34:41.730Z,100239.44
2022-09-25T15:37:29.143Z,100239.38
2022-09-25T15:39:56.691Z,100238.63
2022-09-25T15:42:23.387Z,100229.06
2022-09-25T15:44:50.028Z,100231.31
2022-09-25T15:47:34.763Z,100230.88
2022-09-25T15:50:03.319Z,100229.44
2022-09-25T15:52:34.931Z,100214.88
2022-09-25T15:55:16.653Z,100218.94
2022-09-25T15:57:43.733Z,100217.97
2022-09-25T16:00:42.555Z,100217.38
2022-09-25T16:03:49.737Z,100225.78
2022-09-25T16:06:17.089Z,100201.00
2022-09-25T16:08:43.768Z,100208.38
2022-09-25T16:11:23.549Z,100205.19
2022-09-25T16:13:53.246Z,100207.16
2022-09-25T16:16:24.883Z,100207.97
2022-09-25T16:18:55.416Z,100205.31
2022-09-25T16:21:29.530Z,100203.00
2022-09-25T16:24:00.700Z,100194.88
2022-09-25T16:26:36.447Z,100196.84
2022-09-25T16:29:14.136Z,100201.88
2022-09-25T16:31:42.466Z,100200.44
2022-09-25T16:34:19.661Z,100194.44
2022-09-25T16:36:48.460Z,100194.00
2022-09-25T16:39:23.868Z,100200.69
2022-09-25T16:41:51.031Z,100196.25
2022-09-25T16:44:39.817Z,100190.06
2022-09-25T16:47:18.819Z,100195.03
2022-09-25T16:49:46.740Z,100192.59
2022-09-25T16:52:21.794Z,100187.38
2022-09-25T16:54:53.098Z,100194.97
2022-09-25T16:57:21.511Z,100184.25
2022-09-25T16:59:48.439Z,100178.94
2022-09-25T17:02:37.841Z,100175.09
2022-09-25T17:05:19.196Z,100182.88
2022-09-25T17:07:50.836Z,100178.53
2022-09-25T17:10:20.965Z,100182.56
2022-09-25T17:12:53.991Z,100179.16
2022-09-25T17:15:24.983Z,100171.91
2022-09-25T17:17:54.441Z,100173.84
2022-09-25T17:20:26.054Z,100161.19
2022-09-25T17:22:53.964Z,100157.88
2022-09-25T17:25:42.368Z,100159.41
2022-09-25T17:28:10.829Z,100152.72
2022-09-25T17:30:38.813Z,100148.50
2022-09-25T17:33:06.778Z,100150.16
2022-09-25T17:35:58.935Z,100149.31
2022-09-25T17:38:27.037Z,100142.09
2022-09-25T17:40:57.736Z,100135.59
2022-09-25T17:43:26.118Z,100131.63
2022-09-25T17:45:57.895Z,100127.34
2022-09-25T17:48:27.376Z,100122.03
2022-09-25T17:51:00.943Z,100119.16
2022-09-25T17:53:30.117Z,100123.66
2022-09-25T17:55:57.697Z,100124.09
2022-09-25T17:58:25.598Z,100121.88
2022-09-25T18:00:54.463Z,100122.59
2022-09-25T18:03:21.600Z,100108.22
2022-09-25T18:05:48.981Z,100109.41
2022-09-25T18:08:16.531Z,100100.94
2022-09-25T18:10:43.012Z,100099.44
2022-09-25T18:13:14.586Z,100090.88
2022-09-25T18:15:53.383Z,100099.19
2022-09-25T18:18:20.474Z,100094.38
2022-09-25T18:21:19.675Z,100090.81
2022-09-25T18:23:46.343Z,100091.94
2022-09-25T18:26:13.003Z,100088.47
2022-09-25T18:28:39.587Z,100085.47
2022-09-25T18:31:06.212Z,100090.09
2022-09-25T18:33:32.801Z,100081.44
2022-09-25T18:35:59.931Z,100092.09
2022-09-25T18:38:26.600Z,100078.16
2022-09-25T18:40:53.236Z,100075.13
2022-09-25T18:43:19.927Z,100067.97
2022-09-25T18:45:52.714Z,100067.41
2022-09-25T18:48:19.965Z,100064.25
2022-09-25T18:50:50.256Z,100056.06
2022-09-25T18:53:17.679Z,100046.72
2022-09-25T18:55:44.495Z,100054.16
2022-09-25T18:58:12.003Z,100041.06
2022-09-25T19:00:42.410Z,100039.03
2022-09-25T19:03:09.164Z,100042.88
2022-09-25T19:05:36.098Z,100042.47
2022-09-25T19:08:05.286Z,100036.13
2022-09-25T19:10:36.498Z,100031.97
2022-09-25T19:13:04.272Z,100025.78
2022-09-25T19:15:31.043Z,100016.72
2022-09-25T19:17:59.154Z,100026.78
2022-09-25T19:20:25.846Z,100035.72
2022-09-25T19:22:52.453Z,100032.16
2022-09-25T19:25:22.469Z,100034.75
2022-09-25T19:27:49.553Z,100031.50
2022-09-25T19:30:16.771Z,100025.41
2022-09-25T19:32:43.643Z,100027.38
2022-09-25T19:35:11.225Z,100021.94
2022-09-25T19:37:38.591Z,100024.34
2022-09-25T19:40:26.833Z,100020.63
2022-09-25T19:42:53.475Z,100015.97
2022-09-25T19:45:21.213Z,100015.59
2022-09-25T19:47:49.269Z,100015.81
2022-09-25T19:50:16.079Z,100010.03
2022-09-25T19:52:42.694Z,100012.41
2022-09-25T19:55:12.473Z,100013.03
2022-09-25T19:57:41.701Z,100014.53
2022-09-25T20:00:10.004Z,100005.34
2022-09-25T20:02:40.354Z,100006.63
2022-09-25T20:05:12.797Z,100009.69
2022-09-25T20:07:39.378Z,99998.66
2022-09-25T20:10:06.487Z,99989.47
2022-09-25T20:12:33.186Z,99987.72
2022-09-25T20:14:59.791Z,99988.81
2022-09-25T20:17:26.373Z,99991.06
2022-09-25T20:19:52.939Z,99992.78
2022-09-25T20:22:19.610Z,99988.94
2022-09-25T20:24:47.105Z,99979.19
2022-09-25T20:27:13.681Z,99983.47
2022-09-25T20:29:40.478Z,99984.59
2022-09-25T20:32:07.104Z,99979.75
2022-09-25T20:34:33.701Z,99972.06
2022-09-25T20:37:00.431Z,99968.53
2022-09-25T20:39:29.739Z,99961.97
2022-09-25T20:41:56.375Z,99956.06
2022-09-25T20:44:23.018Z,99956.75
2022-09-25T20:46:49.614Z,99953.59
2022-09-25T20:49:19.950Z,99950.22
2022-09-25T20:51:46.806Z,99943.50
2022-09-25T20:54:13.654Z,99941.66
2022-09-25T20:56:44.890Z,99949.19
2022-09-25T20:59:12.228Z,99935.97
2022-09-25T21:01:40.971Z,99936.91
2022-09-25T21:04:09.092Z,99937.31
2022-09-25T21:06:42.981Z,99938.63
2022-09-25T21:09:21.447Z,99941.84
2022-09-25T21:11:48.119Z,99944.38
2022-09-25T21:14:23.773Z,99936.06
2022-09-25T21:16:51.666Z,99941.09
2022-09-25T21:19:20.436Z,99932.97
2022-09-25T21:21:48.496Z,99940.00
2022-09-25T21:24:17.648Z,99934.91
2022-09-25T21:26:46.326Z,99931.03
2022-09-25T21:29:16.047Z,99927.25
2022-09-25T21:31:48.986Z,99919.88
2022-09-25T21:34:16.298Z,99911.66
2022-09-25T21:36:46.072Z,99906.88
2022-09-25T21:39:13.263Z,99914.28
2022-09-25T21:41:42.686Z,99912.72
2022-09-25T21:44:14.954Z,99907.81
2022-09-25T21:46:42.028Z,99908.91
2022-09-25T21:49:08.737Z,99900.16
2022-09-25T21:51:38.121Z,99906.16
2022-09-25T21:54:06.254Z,99902.28
2022-09-25T21:56:33.409Z,99896.59
2022-09-25T21:59:08.330Z,99895.59
2022-09-25T22:01:37.436Z,99896.97
2022-09-25T22:04:05.150Z,99891.56
2022-09-25T22:06:34.750Z,99892.94
2022-09-25T22:09:05.762Z,99887.91
2022-09-25T22:11:32.862Z,99887.72
2022-09-25T22:14:00.274Z,99874.63
2022-09-25T22:16:36.336Z,99882.81
2022-09-25T22:19:08.103Z,99877.47
2022-09-25T22:21:36.139Z,99868.69
2022-09-25T22:24:03.084Z,99864.00
2022-09-25T22:26:30.134Z,99859.09
2022-09-25T22:28:57.234Z,99857.72
2022-09-25T22:31:26.851Z,99855.66
2022-09-25T22:34:02.625Z,99844.59
2022-09-25T22:36:30.469Z,99845.78
2022-09-25T22:38:57.595Z,99839.38
2022-09-25T22:41:24.862Z,99835.16
2022-09-25T22:43:53.235Z,99825.88
2022-09-25T22:46:21.632Z,99829.50
2022-09-25T22:48:48.762Z,99830.78
2022-09-25T22:51:21.329Z,99826.50
2022-09-25T22:53:48.529Z,99821.69
2022-09-25T22:56:19.815Z,99820.81
2022-09-25T22:58:49.752Z,99820.00
2022-09-25T23:01:28.460Z,99813.50
2022-09-25T23:03:56.856Z,99809.63
2022-09-25T23:06:23.809Z,99809.03
2022-09-25T23:08:54.930Z,99802.97
2022-09-25T23:11:22.161Z,99797.63
2022-09-25T23:13:50.641Z,99798.91
2022-09-25T23:16:18.512Z,99795.47
2022-09-25T23:18:45.250Z,99790.38
2022-09-25T23:21:11.786Z,99792.19
2022-09-25T23:23:38.700Z,99781.44
2022-09-25T23:26:07.552Z,99788.91
2022-09-25T23:28:40.002Z,99785.84
2022-09-25T23:31:12.804Z,99778.97
2022-09-25T23:33:40.499Z,99773.19
2022-09-25T23:36:13.075Z,99767.06
2022-09-25T23:38:40.058Z,99769.19
2022-09-25T23:41:18.686Z,99766.84
2022-09-25T23:43:46.329Z,99771.28
2022-09-25T23:46:13.774Z,99762.13
2022-09-25T23:48:40.378Z,99775.38
2022-09-25T23:51:07.341Z,99768.81
2022-09-25T23:53:34.179Z,99756.97
2022-09-25T23:56:08.099Z,99759.50
2022-09-25T23:58:34.914Z,99760.72
